首页
METAR-TAF:

METAR-TAF

机场 :

彭德-雅皮特國際機場

皮特尔角城, 瓜德罗普

纬度: 16-16N, 经度: 061-31W, 海拔: 11米

当前天气观测

该预报发布于22分钟前的07:00 UTC
风速5节,风向
温度 25°C
湿度 89%
气压 1017 hPa
能見度: 9000

METAR: TFFR 180700Z AUTO 10005KT 9000 OVC048/// ///TCU 25/23 Q1017 TEMPO 4000 SHRA

时间: 03:22 (07:22 UTC)

预报

该预报发布于2小时和22分钟前的05:00 UTC
预报有效从18日的 06点(UTC)到 19日的 06点(UTC)
风速8节,风向东转东南
能见度10公里或以上
散云层高于2500英尺
多云层高于5000英尺
短暂存在
从 18日的 06点(UTC)到 18日的 10点(UTC)
能見度: 4000
多云层高于1800英尺, 塔状积云.
阵雨
几率 40% :
短暂存在
从 18日的 17点(UTC)到 19日的 06点(UTC)
能見度: 3000
多云层高于1500英尺, 塔状积云.
阵雨

TAF: TFFR 180500Z 1806/1906 12008KT 9999 SCT025 BKN050 TEMPO 1806/1810 4000 SHRA BKN018TCU PROB40 TEMPO 1817/1906 3000 SHRA BKN015TCU

超过4000个机场的气象观测和天气预报(METAR&TAF报告)。

可查询的气象台以黄色和红色小点在地图上表示。

将鼠标移到小点上方,可查看气象台名称。

然后点击查看天气观测和预报。

如需切换地图:点击带黑十字的绿色按钮放大地图;点击带横线的绿色按钮缩小地图;或者点击绿色箭头查看邻近地区的地图。


METAR-TAF: